sensor_id;sensor_type;location;lat;lon;timestamp;temperature;humidity
51500;DHT22;39101;53.478;6.158;2023-02-15T00:01:23;0.80;99.90
51500;DHT22;39101;53.478;6.158;2023-02-15T00:03:49;0.80;99.90
51500;DHT22;39101;53.478;6.158;2023-02-15T00:06:15;0.90;99.90
51500;DHT22;39101;53.478;6.158;2023-02-15T00:08:41;0.90;99.90
51500;DHT22;39101;53.478;6.158;2023-02-15T00:11:08;0.90;99.90
51500;DHT22;39101;53.478;6.158;2023-02-15T00:13:34;1.10;99.90
51500;DHT22;39101;53.478;6.158;2023-02-15T00:16:12;0.90;99.90
51500;DHT22;39101;53.478;6.158;2023-02-15T00:18:39;0.90;99.90
51500;DHT22;39101;53.478;6.158;2023-02-15T00:21:09;1.00;99.90
51500;DHT22;39101;53.478;6.158;2023-02-15T00:23:36;1.50;99.90
51500;DHT22;39101;53.478;6.158;2023-02-15T00:26:11;0.70;99.90
51500;DHT22;39101;53.478;6.158;2023-02-15T00:28:38;1.30;99.90
51500;DHT22;39101;53.478;6.158;2023-02-15T00:31:09;0.70;99.90
51500;DHT22;39101;53.478;6.158;2023-02-15T00:33:36;0.60;99.90
51500;DHT22;39101;53.478;6.158;2023-02-15T00:36:03;1.70;99.90
51500;DHT22;39101;53.478;6.158;2023-02-15T00:38:31;0.60;99.90
51500;DHT22;39101;53.478;6.158;2023-02-15T00:40:59;0.70;99.90
51500;DHT22;39101;53.478;6.158;2023-02-15T00:43:26;0.70;99.90
51500;DHT22;39101;53.478;6.158;2023-02-15T00:45:52;0.80;99.90
51500;DHT22;39101;53.478;6.158;2023-02-15T00:48:18;0.90;99.90
51500;DHT22;39101;53.478;6.158;2023-02-15T00:50:56;1.90;99.90
51500;DHT22;39101;53.478;6.158;2023-02-15T00:53:22;0.90;99.90
51500;DHT22;39101;53.478;6.158;2023-02-15T00:55:48;1.50;99.90
51500;DHT22;39101;53.478;6.158;2023-02-15T00:58:14;1.00;99.90
51500;DHT22;39101;53.478;6.158;2023-02-15T01:00:42;1.10;99.90
51500;DHT22;39101;53.478;6.158;2023-02-15T01:03:08;1.00;99.90
51500;DHT22;39101;53.478;6.158;2023-02-15T01:05:34;1.10;99.90
51500;DHT22;39101;53.478;6.158;2023-02-15T01:08:00;1.20;99.90
51500;DHT22;39101;53.478;6.158;2023-02-15T01:10:27;1.10;99.90
51500;DHT22;39101;53.478;6.158;2023-02-15T01:12:53;1.00;99.90
51500;DHT22;39101;53.478;6.158;2023-02-15T01:15:19;1.20;99.90
51500;DHT22;39101;53.478;6.158;2023-02-15T01:17:45;1.20;99.90
51500;DHT22;39101;53.478;6.158;2023-02-15T01:20:22;1.20;99.90
51500;DHT22;39101;53.478;6.158;2023-02-15T01:22:48;1.60;99.90
51500;DHT22;39101;53.478;6.158;2023-02-15T01:25:20;1.20;99.90
51500;DHT22;39101;53.478;6.158;2023-02-15T01:27:46;1.30;99.90
51500;DHT22;39101;53.478;6.158;2023-02-15T01:30:13;1.50;99.90
51500;DHT22;39101;53.478;6.158;2023-02-15T01:32:39;1.20;99.90
51500;DHT22;39101;53.478;6.158;2023-02-15T01:35:06;1.10;99.90
51500;DHT22;39101;53.478;6.158;2023-02-15T01:37:32;1.20;99.90
51500;DHT22;39101;53.478;6.158;2023-02-15T01:39:58;1.70;99.90
51500;DHT22;39101;53.478;6.158;2023-02-15T01:42:26;1.10;99.90
51500;DHT22;39101;53.478;6.158;2023-02-15T01:44:53;1.50;99.90
51500;DHT22;39101;53.478;6.158;2023-02-15T01:47:23;1.20;99.90
51500;DHT22;39101;53.478;6.158;2023-02-15T01:50:00;1.00;99.90
51500;DHT22;39101;53.478;6.158;2023-02-15T01:52:29;1.10;99.90
51500;DHT22;39101;53.478;6.158;2023-02-15T01:54:55;1.90;99.90
51500;DHT22;39101;53.478;6.158;2023-02-15T01:57:24;1.10;99.90
51500;DHT22;39101;53.478;6.158;2023-02-15T01:59:54;1.00;99.90
51500;DHT22;39101;53.478;6.158;2023-02-15T02:02:21;1.00;99.90
51500;DHT22;39101;53.478;6.158;2023-02-15T02:04:56;1.00;99.90
51500;DHT22;39101;53.478;6.158;2023-02-15T02:07:27;0.90;99.90
51500;DHT22;39101;53.478;6.158;2023-02-15T02:09:53;0.90;99.90
51500;DHT22;39101;53.478;6.158;2023-02-15T02:12:21;1.80;99.90
51500;DHT22;39101;53.478;6.158;2023-02-15T02:14:48;0.90;99.90
51500;DHT22;39101;53.478;6.158;2023-02-15T02:31:00;0.90;99.90
51500;DHT22;39101;53.478;6.158;2023-02-15T02:33:39;1.00;99.90
51500;DHT22;39101;53.478;6.158;2023-02-15T02:39:12;0.80;99.90
51500;DHT22;39101;53.478;6.158;2023-02-15T02:49:39;0.80;99.90
51500;DHT22;39101;53.478;6.158;2023-02-15T02:52:54;0.70;99.90
51500;DHT22;39101;53.478;6.158;2023-02-15T02:54:55;0.70;99.90
51500;DHT22;39101;53.478;6.158;2023-02-15T02:57:23;0.70;99.90
51500;DHT22;39101;53.478;6.158;2023-02-15T02:59:50;0.90;99.90
51500;DHT22;39101;53.478;6.158;2023-02-15T03:02:25;0.90;99.90
51500;DHT22;39101;53.478;6.158;2023-02-15T03:04:57;0.80;99.90
51500;DHT22;39101;53.478;6.158;2023-02-15T03:07:30;0.80;99.90
51500;DHT22;39101;53.478;6.158;2023-02-15T03:10:02;0.80;99.90
51500;DHT22;39101;53.478;6.158;2023-02-15T03:12:32;0.90;99.90
51500;DHT22;39101;53.478;6.158;2023-02-15T03:15:16;0.90;99.90
51500;DHT22;39101;53.478;6.158;2023-02-15T03:18:04;1.00;99.90
51500;DHT22;39101;53.478;6.158;2023-02-15T03:20:34;0.90;99.90
51500;DHT22;39101;53.478;6.158;2023-02-15T03:23:05;1.00;99.90
51500;DHT22;39101;53.478;6.158;2023-02-15T03:25:38;1.10;99.90
51500;DHT22;39101;53.478;6.158;2023-02-15T03:28:17;1.00;99.90
51500;DHT22;39101;53.478;6.158;2023-02-15T03:30:46;1.20;99.90
51500;DHT22;39101;53.478;6.158;2023-02-15T03:33:15;1.20;99.90
51500;DHT22;39101;53.478;6.158;2023-02-15T03:35:53;1.10;99.90
51500;DHT22;39101;53.478;6.158;2023-02-15T03:38:30;1.30;99.90
51500;DHT22;39101;53.478;6.158;2023-02-15T03:40:59;1.20;99.90
51500;DHT22;39101;53.478;6.158;2023-02-15T03:43:38;1.20;99.90
51500;DHT22;39101;53.478;6.158;2023-02-15T03:46:11;1.40;99.90
51500;DHT22;39101;53.478;6.158;2023-02-15T03:48:43;1.60;99.90
51500;DHT22;39101;53.478;6.158;2023-02-15T03:51:14;1.20;99.90
51500;DHT22;39101;53.478;6.158;2023-02-15T03:54:17;2.10;99.90
51500;DHT22;39101;53.478;6.158;2023-02-15T03:57:04;1.20;99.90
51500;DHT22;39101;53.478;6.158;2023-02-15T03:59:48;1.30;99.90
51500;DHT22;39101;53.478;6.158;2023-02-15T04:02:44;1.20;99.90
51500;DHT22;39101;53.478;6.158;2023-02-15T04:05:11;1.10;99.90
51500;DHT22;39101;53.478;6.158;2023-02-15T04:07:37;1.10;99.90
51500;DHT22;39101;53.478;6.158;2023-02-15T04:10:03;1.20;99.90
51500;DHT22;39101;53.478;6.158;2023-02-15T04:12:47;1.00;99.90
51500;DHT22;39101;53.478;6.158;2023-02-15T04:15:12;1.10;99.90
51500;DHT22;39101;53.478;6.158;2023-02-15T04:17:57;1.10;99.90
51500;DHT22;39101;53.478;6.158;2023-02-15T04:20:22;1.00;99.90
51500;DHT22;39101;53.478;6.158;2023-02-15T04:23:07;1.10;99.90
51500;DHT22;39101;53.478;6.158;2023-02-15T04:25:51;1.90;99.90
51500;DHT22;39101;53.478;6.158;2023-02-15T04:28:17;0.80;99.90
51500;DHT22;39101;53.478;6.158;2023-02-15T04:30:42;0.80;99.90
51500;DHT22;39101;53.478;6.158;2023-02-15T04:33:08;1.70;99.90
51500;DHT22;39101;53.478;6.158;2023-02-15T04:35:33;0.70;99.90
51500;DHT22;39101;53.478;6.158;2023-02-15T04:37:59;0.80;99.90
51500;DHT22;39101;53.478;6.158;2023-02-15T04:40:25;0.70;99.90
51500;DHT22;39101;53.478;6.158;2023-02-15T04:42:51;1.00;99.90
51500;DHT22;39101;53.478;6.158;2023-02-15T04:45:17;1.30;99.90
51500;DHT22;39101;53.478;6.158;2023-02-15T04:47:43;1.30;99.90
51500;DHT22;39101;53.478;6.158;2023-02-15T04:50:09;0.90;99.90
51500;DHT22;39101;53.478;6.158;2023-02-15T04:52:35;0.80;99.90
51500;DHT22;39101;53.478;6.158;2023-02-15T04:55:01;0.70;99.90
51500;DHT22;39101;53.478;6.158;2023-02-15T04:57:27;1.70;99.90
51500;DHT22;39101;53.478;6.158;2023-02-15T04:59:53;0.80;99.90
51500;DHT22;39101;53.478;6.158;2023-02-15T05:02:19;0.90;99.90
51500;DHT22;39101;53.478;6.158;2023-02-15T05:04:44;0.90;99.90
51500;DHT22;39101;53.478;6.158;2023-02-15T05:07:10;0.90;99.90
51500;DHT22;39101;53.478;6.158;2023-02-15T05:09:36;1.60;99.90
51500;DHT22;39101;53.478;6.158;2023-02-15T05:12:02;1.20;99.90
51500;DHT22;39101;53.478;6.158;2023-02-15T05:14:27;0.80;99.90
51500;DHT22;39101;53.478;6.158;2023-02-15T05:16:53;1.00;99.90
51500;DHT22;39101;53.478;6.158;2023-02-15T05:19:19;1.00;99.90
51500;DHT22;39101;53.478;6.158;2023-02-15T05:21:45;0.90;99.90
51500;DHT22;39101;53.478;6.158;2023-02-15T05:24:11;0.90;99.90
51500;DHT22;39101;53.478;6.158;2023-02-15T05:26:54;1.00;99.90
51500;DHT22;39101;53.478;6.158;2023-02-15T05:29:39;1.00;99.90
51500;DHT22;39101;53.478;6.158;2023-02-15T05:32:04;0.90;99.90
51500;DHT22;39101;53.478;6.158;2023-02-15T05:34:30;0.90;99.90
51500;DHT22;39101;53.478;6.158;2023-02-15T05:36:56;0.70;99.90
51500;DHT22;39101;53.478;6.158;2023-02-15T05:39:22;0.70;99.90
51500;DHT22;39101;53.478;6.158;2023-02-15T05:41:47;0.80;99.90
51500;DHT22;39101;53.478;6.158;2023-02-15T05:44:13;1.80;99.90
51500;DHT22;39101;53.478;6.158;2023-02-15T05:46:38;0.90;99.90
51500;DHT22;39101;53.478;6.158;2023-02-15T05:49:04;0.90;99.90
51500;DHT22;39101;53.478;6.158;2023-02-15T05:51:30;0.70;99.90
51500;DHT22;39101;53.478;6.158;2023-02-15T05:53:56;2.10;99.90
51500;DHT22;39101;53.478;6.158;2023-02-15T05:56:21;0.70;99.90
51500;DHT22;39101;53.478;6.158;2023-02-15T05:58:47;0.80;99.90
51500;DHT22;39101;53.478;6.158;2023-02-15T06:01:18;1.10;99.90
51500;DHT22;39101;53.478;6.158;2023-02-15T06:03:44;0.60;99.90
51500;DHT22;39101;53.478;6.158;2023-02-15T06:06:10;0.60;99.90
51500;DHT22;39101;53.478;6.158;2023-02-15T06:08:37;0.70;99.90
51500;DHT22;39101;53.478;6.158;2023-02-15T06:11:04;0.50;99.90
51500;DHT22;39101;53.478;6.158;2023-02-15T06:13:31;0.60;99.90
51500;DHT22;39101;53.478;6.158;2023-02-15T06:15:56;0.70;99.90
51500;DHT22;39101;53.478;6.158;2023-02-15T06:18:22;0.70;99.90
51500;DHT22;39101;53.478;6.158;2023-02-15T06:20:48;0.70;99.90
51500;DHT22;39101;53.478;6.158;2023-02-15T06:23:14;1.50;99.90
51500;DHT22;39101;53.478;6.158;2023-02-15T06:25:40;1.40;99.90
51500;DHT22;39101;53.478;6.158;2023-02-15T06:28:06;0.70;99.90
51500;DHT22;39101;53.478;6.158;2023-02-15T06:30:31;0.80;99.90
51500;DHT22;39101;53.478;6.158;2023-02-15T06:32:57;1.00;99.90
51500;DHT22;39101;53.478;6.158;2023-02-15T06:35:23;0.50;99.90
51500;DHT22;39101;53.478;6.158;2023-02-15T06:37:49;0.50;99.90
51500;DHT22;39101;53.478;6.158;2023-02-15T06:40:15;0.60;99.90
51500;DHT22;39101;53.478;6.158;2023-02-15T06:42:44;0.60;99.90
51500;DHT22;39101;53.478;6.158;2023-02-15T06:45:10;0.70;99.90
51500;DHT22;39101;53.478;6.158;2023-02-15T06:47:36;0.70;99.90
51500;DHT22;39101;53.478;6.158;2023-02-15T06:50:03;0.60;99.90
51500;DHT22;39101;53.478;6.158;2023-02-15T06:52:29;0.60;99.90
51500;DHT22;39101;53.478;6.158;2023-02-15T06:54:54;0.70;99.90
51500;DHT22;39101;53.478;6.158;2023-02-15T06:57:20;0.60;99.90
51500;DHT22;39101;53.478;6.158;2023-02-15T06:59:46;0.80;99.90
51500;DHT22;39101;53.478;6.158;2023-02-15T07:02:12;0.70;99.90
51500;DHT22;39101;53.478;6.158;2023-02-15T07:04:38;1.30;99.90
51500;DHT22;39101;53.478;6.158;2023-02-15T07:07:04;0.80;99.90
51500;DHT22;39101;53.478;6.158;2023-02-15T07:09:29;0.80;99.90
51500;DHT22;39101;53.478;6.158;2023-02-15T07:11:55;1.00;99.90
51500;DHT22;39101;53.478;6.158;2023-02-15T07:14:39;0.80;99.90
51500;DHT22;39101;53.478;6.158;2023-02-15T07:17:06;0.80;99.90
51500;DHT22;39101;53.478;6.158;2023-02-15T07:19:31;0.80;99.90
51500;DHT22;39101;53.478;6.158;2023-02-15T07:21:57;1.50;99.90
51500;DHT22;39101;53.478;6.158;2023-02-15T07:24:23;1.00;99.90
51500;DHT22;39101;53.478;6.158;2023-02-15T07:26:49;1.00;99.90
51500;DHT22;39101;53.478;6.158;2023-02-15T07:29:14;1.40;99.90
51500;DHT22;39101;53.478;6.158;2023-02-15T07:31:41;1.10;99.90
51500;DHT22;39101;53.478;6.158;2023-02-15T07:34:08;1.20;99.90
51500;DHT22;39101;53.478;6.158;2023-02-15T07:36:34;1.10;99.90
51500;DHT22;39101;53.478;6.158;2023-02-15T07:39:00;1.30;99.90
51500;DHT22;39101;53.478;6.158;2023-02-15T07:41:25;1.80;99.90
51500;DHT22;39101;53.478;6.158;2023-02-15T07:43:51;1.30;99.90
51500;DHT22;39101;53.478;6.158;2023-02-15T07:46:17;1.30;99.90
51500;DHT22;39101;53.478;6.158;2023-02-15T07:48:43;2.00;99.90
51500;DHT22;39101;53.478;6.158;2023-02-15T07:51:11;1.50;99.90
51500;DHT22;39101;53.478;6.158;2023-02-15T07:53:37;1.30;99.90
51500;DHT22;39101;53.478;6.158;2023-02-15T07:56:06;1.40;99.90
51500;DHT22;39101;53.478;6.158;2023-02-15T07:58:33;1.60;99.90
51500;DHT22;39101;53.478;6.158;2023-02-15T08:01:22;1.50;99.90
51500;DHT22;39101;53.478;6.158;2023-02-15T08:03:48;1.60;99.90
51500;DHT22;39101;53.478;6.158;2023-02-15T08:06:13;1.70;99.90
51500;DHT22;39101;53.478;6.158;2023-02-15T08:08:40;1.70;99.90
51500;DHT22;39101;53.478;6.158;2023-02-15T08:11:16;3.10;99.90
51500;DHT22;39101;53.478;6.158;2023-02-15T08:13:56;1.90;99.90
51500;DHT22;39101;53.478;6.158;2023-02-15T08:18:57;1.90;99.90
51500;DHT22;39101;53.478;6.158;2023-02-15T08:21:25;2.50;99.90
51500;DHT22;39101;53.478;6.158;2023-02-15T08:23:51;2.20;99.90
51500;DHT22;39101;53.478;6.158;2023-02-15T08:26:17;2.60;99.90
51500;DHT22;39101;53.478;6.158;2023-02-15T08:28:43;2.50;99.90
51500;DHT22;39101;53.478;6.158;2023-02-15T08:31:11;2.20;99.90
51500;DHT22;39101;53.478;6.158;2023-02-15T08:33:38;2.30;99.90
51500;DHT22;39101;53.478;6.158;2023-02-15T08:36:06;3.00;99.90
51500;DHT22;39101;53.478;6.158;2023-02-15T08:38:33;2.50;99.90
51500;DHT22;39101;53.478;6.158;2023-02-15T08:41:23;2.60;99.90
51500;DHT22;39101;53.478;6.158;2023-02-15T08:43:54;2.90;99.90
51500;DHT22;39101;53.478;6.158;2023-02-15T08:46:20;3.00;99.90
51500;DHT22;39101;53.478;6.158;2023-02-15T08:48:46;2.90;99.90
51500;DHT22;39101;53.478;6.158;2023-02-15T08:51:14;3.00;99.90
51500;DHT22;39101;53.478;6.158;2023-02-15T08:53:42;3.60;99.90
51500;DHT22;39101;53.478;6.158;2023-02-15T08:56:08;3.30;99.90
51500;DHT22;39101;53.478;6.158;2023-02-15T08:58:34;3.20;99.90
51500;DHT22;39101;53.478;6.158;2023-02-15T09:01:00;3.30;99.90
51500;DHT22;39101;53.478;6.158;2023-02-15T09:03:28;3.20;99.90
51500;DHT22;39101;53.478;6.158;2023-02-15T09:06:00;3.30;99.90
51500;DHT22;39101;53.478;6.158;2023-02-15T09:08:27;3.50;99.90
51500;DHT22;39101;53.478;6.158;2023-02-15T09:10:54;3.40;99.90
51500;DHT22;39101;53.478;6.158;2023-02-15T09:13:20;3.70;99.90
51500;DHT22;39101;53.478;6.158;2023-02-15T09:15:46;3.70;99.90
51500;DHT22;39101;53.478;6.158;2023-02-15T09:18:12;3.90;99.90
51500;DHT22;39101;53.478;6.158;2023-02-15T09:20:43;4.00;99.90
51500;DHT22;39101;53.478;6.158;2023-02-15T09:23:10;3.80;99.90
51500;DHT22;39101;53.478;6.158;2023-02-15T09:25:35;4.20;99.90
51500;DHT22;39101;53.478;6.158;2023-02-15T09:28:01;4.00;99.90
51500;DHT22;39101;53.478;6.158;2023-02-15T09:30:26;4.60;99.90
51500;DHT22;39101;53.478;6.158;2023-02-15T09:32:52;4.10;99.90
51500;DHT22;39101;53.478;6.158;2023-02-15T09:35:18;4.30;99.90
51500;DHT22;39101;53.478;6.158;2023-02-15T09:37:43;4.70;99.90
51500;DHT22;39101;53.478;6.158;2023-02-15T09:40:12;4.60;99.90
51500;DHT22;39101;53.478;6.158;2023-02-15T09:42:56;4.70;99.90
51500;DHT22;39101;53.478;6.158;2023-02-15T10:04:14;5.20;99.90
51500;DHT22;39101;53.478;6.158;2023-02-15T10:10:02;5.30;99.90
51500;DHT22;39101;53.478;6.158;2023-02-15T10:26:44;5.90;99.90
51500;DHT22;39101;53.478;6.158;2023-02-15T10:29:35;5.70;99.90
51500;DHT22;39101;53.478;6.158;2023-02-15T10:32:23;5.80;99.90
51500;DHT22;39101;53.478;6.158;2023-02-15T10:35:07;6.10;99.90
51500;DHT22;39101;53.478;6.158;2023-02-15T10:48:15;6.30;99.90
51500;DHT22;39101;53.478;6.158;2023-02-15T10:53:41;6.50;99.90
51500;DHT22;39101;53.478;6.158;2023-02-15T10:56:20;6.70;99.90
51500;DHT22;39101;53.478;6.158;2023-02-15T10:59:25;6.80;99.90
51500;DHT22;39101;53.478;6.158;2023-02-15T11:05:41;7.20;99.90
51500;DHT22;39101;53.478;6.158;2023-02-15T11:07:46;7.20;99.90
51500;DHT22;39101;53.478;6.158;2023-02-15T11:10:22;7.20;99.90
51500;DHT22;39101;53.478;6.158;2023-02-15T11:12:50;7.30;99.90
51500;DHT22;39101;53.478;6.158;2023-02-15T11:15:24;7.30;99.90
51500;DHT22;39101;53.478;6.158;2023-02-15T11:22:59;7.30;99.90
51500;DHT22;39101;53.478;6.158;2023-02-15T11:25:34;7.30;99.90
51500;DHT22;39101;53.478;6.158;2023-02-15T11:28:04;7.30;99.90
51500;DHT22;39101;53.478;6.158;2023-02-15T11:30:47;7.40;99.90
51500;DHT22;39101;53.478;6.158;2023-02-15T11:33:17;7.50;99.90
51500;DHT22;39101;53.478;6.158;2023-02-15T11:35:56;7.50;99.90
51500;DHT22;39101;53.478;6.158;2023-02-15T11:38:26;7.50;99.90
51500;DHT22;39101;53.478;6.158;2023-02-15T11:41:08;7.50;99.90
51500;DHT22;39101;53.478;6.158;2023-02-15T11:46:11;7.80;99.90
51500;DHT22;39101;53.478;6.158;2023-02-15T11:48:38;7.90;99.90
51500;DHT22;39101;53.478;6.158;2023-02-15T11:51:04;7.90;99.90
51500;DHT22;39101;53.478;6.158;2023-02-15T11:53:35;8.00;99.90
51500;DHT22;39101;53.478;6.158;2023-02-15T11:56:01;8.10;99.90
51500;DHT22;39101;53.478;6.158;2023-02-15T11:58:55;8.20;99.90
51500;DHT22;39101;53.478;6.158;2023-02-15T12:01:38;8.30;99.90
51500;DHT22;39101;53.478;6.158;2023-02-15T12:06:54;8.60;99.90
51500;DHT22;39101;53.478;6.158;2023-02-15T12:09:34;8.70;99.90
51500;DHT22;39101;53.478;6.158;2023-02-15T12:12:29;8.80;99.90
51500;DHT22;39101;53.478;6.158;2023-02-15T12:15:00;8.90;99.90
51500;DHT22;39101;53.478;6.158;2023-02-15T12:17:28;9.00;99.90
51500;DHT22;39101;53.478;6.158;2023-02-15T12:19:57;9.10;99.90
51500;DHT22;39101;53.478;6.158;2023-02-15T12:22:26;9.10;99.90
51500;DHT22;39101;53.478;6.158;2023-02-15T12:24:56;9.10;99.90
51500;DHT22;39101;53.478;6.158;2023-02-15T12:27:32;9.10;99.90
51500;DHT22;39101;53.478;6.158;2023-02-15T12:30:05;9.20;99.90
51500;DHT22;39101;53.478;6.158;2023-02-15T12:32:48;9.30;99.90
51500;DHT22;39101;53.478;6.158;2023-02-15T12:35:37;9.20;99.90
51500;DHT22;39101;53.478;6.158;2023-02-15T12:38:04;9.30;99.90
51500;DHT22;39101;53.478;6.158;2023-02-15T12:40:32;9.20;99.90
51500;DHT22;39101;53.478;6.158;2023-02-15T12:42:59;9.20;99.90
51500;DHT22;39101;53.478;6.158;2023-02-15T12:45:29;9.20;99.90
51500;DHT22;39101;53.478;6.158;2023-02-15T12:50:33;9.30;99.90
51500;DHT22;39101;53.478;6.158;2023-02-15T12:55:50;9.40;99.90
51500;DHT22;39101;53.478;6.158;2023-02-15T12:58:22;9.40;99.90
51500;DHT22;39101;53.478;6.158;2023-02-15T13:01:04;9.40;99.90
51500;DHT22;39101;53.478;6.158;2023-02-15T13:03:36;9.40;99.90
51500;DHT22;39101;53.478;6.158;2023-02-15T13:06:04;9.40;99.90
51500;DHT22;39101;53.478;6.158;2023-02-15T13:08:45;9.50;99.90
51500;DHT22;39101;53.478;6.158;2023-02-15T13:11:11;9.60;99.90
51500;DHT22;39101;53.478;6.158;2023-02-15T13:13:51;9.80;99.90
51500;DHT22;39101;53.478;6.158;2023-02-15T13:16:32;9.80;99.90
51500;DHT22;39101;53.478;6.158;2023-02-15T13:19:03;9.90;99.90
51500;DHT22;39101;53.478;6.158;2023-02-15T13:21:35;9.90;99.90
51500;DHT22;39101;53.478;6.158;2023-02-15T13:27:18;9.80;99.90
51500;DHT22;39101;53.478;6.158;2023-02-15T13:29:49;9.60;99.90
51500;DHT22;39101;53.478;6.158;2023-02-15T13:32:27;9.60;99.90
51500;DHT22;39101;53.478;6.158;2023-02-15T13:34:59;9.50;99.90
51500;DHT22;39101;53.478;6.158;2023-02-15T13:40:55;9.60;99.90
51500;DHT22;39101;53.478;6.158;2023-02-15T14:10:46;10.10;99.90
51500;DHT22;39101;53.478;6.158;2023-02-15T14:21:40;10.00;99.90
51500;DHT22;39101;53.478;6.158;2023-02-15T14:29:56;9.80;99.90
51500;DHT22;39101;53.478;6.158;2023-02-15T14:32:33;9.80;99.90
51500;DHT22;39101;53.478;6.158;2023-02-15T14:35:04;9.80;99.90
51500;DHT22;39101;53.478;6.158;2023-02-15T14:37:54;9.70;99.90
51500;DHT22;39101;53.478;6.158;2023-02-15T14:49:10;9.70;99.90
51500;DHT22;39101;53.478;6.158;2023-02-15T14:56:44;9.70;99.90
51500;DHT22;39101;53.478;6.158;2023-02-15T14:59:20;9.70;99.90
51500;DHT22;39101;53.478;6.158;2023-02-15T15:02:09;9.70;99.90
51500;DHT22;39101;53.478;6.158;2023-02-15T15:05:20;9.80;99.90
51500;DHT22;39101;53.478;6.158;2023-02-15T15:10:06;9.70;99.90
51500;DHT22;39101;53.478;6.158;2023-02-15T15:13:52;9.70;99.90
51500;DHT22;39101;53.478;6.158;2023-02-15T15:15:46;9.60;99.90
51500;DHT22;39101;53.478;6.158;2023-02-15T15:18:47;9.50;99.90
51500;DHT22;39101;53.478;6.158;2023-02-15T15:38:48;9.20;99.90
51500;DHT22;39101;53.478;6.158;2023-02-15T15:49:57;8.90;99.90
51500;DHT22;39101;53.478;6.158;2023-02-15T15:52:24;8.80;99.90
51500;DHT22;39101;53.478;6.158;2023-02-15T15:54:55;8.70;99.90
51500;DHT22;39101;53.478;6.158;2023-02-15T15:57:42;8.70;99.90
51500;DHT22;39101;53.478;6.158;2023-02-15T16:00:30;8.60;99.90
51500;DHT22;39101;53.478;6.158;2023-02-15T16:02:57;8.60;99.90
51500;DHT22;39101;53.478;6.158;2023-02-15T16:05:23;8.50;99.90
51500;DHT22;39101;53.478;6.158;2023-02-15T16:07:49;8.40;99.90
51500;DHT22;39101;53.478;6.158;2023-02-15T16:10:27;8.30;99.90
51500;DHT22;39101;53.478;6.158;2023-02-15T16:12:54;8.30;99.90
51500;DHT22;39101;53.478;6.158;2023-02-15T16:15:23;8.30;99.90
51500;DHT22;39101;53.478;6.158;2023-02-15T16:17:52;8.20;99.90
51500;DHT22;39101;53.478;6.158;2023-02-15T16:22:52;8.10;99.90
51500;DHT22;39101;53.478;6.158;2023-02-15T16:28:08;7.90;99.90
51500;DHT22;39101;53.478;6.158;2023-02-15T16:30:35;7.90;99.90
51500;DHT22;39101;53.478;6.158;2023-02-15T16:33:13;7.80;99.90
51500;DHT22;39101;53.478;6.158;2023-02-15T16:36:02;7.70;99.90
51500;DHT22;39101;53.478;6.158;2023-02-15T16:41:21;7.50;99.90
51500;DHT22;39101;53.478;6.158;2023-02-15T16:43:48;7.50;99.90
51500;DHT22;39101;53.478;6.158;2023-02-15T16:48:49;7.30;99.90
51500;DHT22;39101;53.478;6.158;2023-02-15T16:51:28;7.20;99.90
51500;DHT22;39101;53.478;6.158;2023-02-15T16:53:56;7.20;99.90
51500;DHT22;39101;53.478;6.158;2023-02-15T16:56:23;7.10;99.90
51500;DHT22;39101;53.478;6.158;2023-02-15T16:58:50;7.10;99.90
51500;DHT22;39101;53.478;6.158;2023-02-15T17:01:20;7.10;99.90
51500;DHT22;39101;53.478;6.158;2023-02-15T17:03:49;7.00;99.90
51500;DHT22;39101;53.478;6.158;2023-02-15T17:06:26;7.00;99.90
51500;DHT22;39101;53.478;6.158;2023-02-15T17:08:52;6.80;99.90
51500;DHT22;39101;53.478;6.158;2023-02-15T17:11:39;6.80;99.90
51500;DHT22;39101;53.478;6.158;2023-02-15T17:16:34;6.70;99.90
51500;DHT22;39101;53.478;6.158;2023-02-15T17:19:02;6.70;99.90
51500;DHT22;39101;53.478;6.158;2023-02-15T17:21:32;6.60;99.90
51500;DHT22;39101;53.478;6.158;2023-02-15T17:24:00;6.60;99.90
51500;DHT22;39101;53.478;6.158;2023-02-15T17:26:34;6.60;99.90
51500;DHT22;39101;53.478;6.158;2023-02-15T17:31:43;6.60;99.90
51500;DHT22;39101;53.478;6.158;2023-02-15T17:34:50;6.60;99.90
51500;DHT22;39101;53.478;6.158;2023-02-15T17:37:45;6.60;99.90
51500;DHT22;39101;53.478;6.158;2023-02-15T17:40:26;6.50;99.90
51500;DHT22;39101;53.478;6.158;2023-02-15T17:42:52;6.50;99.90
51500;DHT22;39101;53.478;6.158;2023-02-15T17:45:19;6.50;99.90
51500;DHT22;39101;53.478;6.158;2023-02-15T17:47:46;6.60;99.90
51500;DHT22;39101;53.478;6.158;2023-02-15T17:50:24;6.60;99.90
51500;DHT22;39101;53.478;6.158;2023-02-15T17:52:51;6.50;99.90
51500;DHT22;39101;53.478;6.158;2023-02-15T17:55:20;6.60;99.90
51500;DHT22;39101;53.478;6.158;2023-02-15T17:58:12;6.50;99.90
51500;DHT22;39101;53.478;6.158;2023-02-15T18:00:42;6.50;99.90
51500;DHT22;39101;53.478;6.158;2023-02-15T18:03:36;6.50;99.90
51500;DHT22;39101;53.478;6.158;2023-02-15T18:06:22;6.50;99.90
51500;DHT22;39101;53.478;6.158;2023-02-15T18:09:12;6.50;99.90
51500;DHT22;39101;53.478;6.158;2023-02-15T18:11:57;6.60;99.90
51500;DHT22;39101;53.478;6.158;2023-02-15T18:14:23;6.50;99.90
51500;DHT22;39101;53.478;6.158;2023-02-15T18:16:49;6.40;99.90
51500;DHT22;39101;53.478;6.158;2023-02-15T18:19:20;6.50;99.90
51500;DHT22;39101;53.478;6.158;2023-02-15T18:21:47;6.40;99.90
51500;DHT22;39101;53.478;6.158;2023-02-15T18:24:20;6.40;99.90
51500;DHT22;39101;53.478;6.158;2023-02-15T18:26:49;6.50;99.90
51500;DHT22;39101;53.478;6.158;2023-02-15T18:29:15;6.40;99.90
51500;DHT22;39101;53.478;6.158;2023-02-15T18:31:41;6.40;99.90
51500;DHT22;39101;53.478;6.158;2023-02-15T18:34:29;6.40;99.90
51500;DHT22;39101;53.478;6.158;2023-02-15T18:36:57;6.40;99.90
51500;DHT22;39101;53.478;6.158;2023-02-15T18:39:36;6.40;99.90
51500;DHT22;39101;53.478;6.158;2023-02-15T18:42:05;6.30;99.90
51500;DHT22;39101;53.478;6.158;2023-02-15T18:44:31;6.30;99.90
51500;DHT22;39101;53.478;6.158;2023-02-15T18:46:57;6.30;99.90
51500;DHT22;39101;53.478;6.158;2023-02-15T18:49:23;6.30;99.90
51500;DHT22;39101;53.478;6.158;2023-02-15T18:51:49;6.30;99.90
51500;DHT22;39101;53.478;6.158;2023-02-15T18:54:20;6.30;99.90
51500;DHT22;39101;53.478;6.158;2023-02-15T18:57:08;6.20;99.90
51500;DHT22;39101;53.478;6.158;2023-02-15T18:59:36;6.10;99.90
51500;DHT22;39101;53.478;6.158;2023-02-15T19:02:02;6.10;99.90
51500;DHT22;39101;53.478;6.158;2023-02-15T19:04:28;6.20;99.90
51500;DHT22;39101;53.478;6.158;2023-02-15T19:06:53;6.10;99.90
51500;DHT22;39101;53.478;6.158;2023-02-15T19:09:22;6.10;99.90
51500;DHT22;39101;53.478;6.158;2023-02-15T19:11:52;6.10;99.90
51500;DHT22;39101;53.478;6.158;2023-02-15T19:14:24;6.20;99.90
51500;DHT22;39101;53.478;6.158;2023-02-15T19:16:51;6.10;99.90
51500;DHT22;39101;53.478;6.158;2023-02-15T19:19:16;6.10;99.90
51500;DHT22;39101;53.478;6.158;2023-02-15T19:21:42;6.20;99.90
51500;DHT22;39101;53.478;6.158;2023-02-15T19:24:24;6.20;99.90
51500;DHT22;39101;53.478;6.158;2023-02-15T19:26:54;6.20;99.90
51500;DHT22;39101;53.478;6.158;2023-02-15T19:29:26;6.10;99.90
51500;DHT22;39101;53.478;6.158;2023-02-15T19:31:52;6.10;99.90